Search for airport 
image banner adimage banner adimage banner ad
image banner ad

3NV1 - Desert Springs Hospital

Located in Las Vegas, United States

ICAO - 3NV1, IATA -

Data provided by Airmate  

General information

Coordinates: N36°6'45" W115°7'27"
Elevation is 1967 feet MSL.
 
View others Airports in Nevada

Operational data

Special qualification required
Current time UTC:
Current local time:
Weather at : KLAS - Mc Carran Intl ( 4 km )
METAR: KLAS 130256Z 11007KT 10SM FEW250 37/M09 A2977 RMK AO2 SLP049 T03671094 55007
TAF: KLAS 130237Z 1303/1406 10009KT P6SM FEW250 FM130500 20006KT P6SM FEW250 FM131400 VRB05KT P6SM FEW250 FM132000 17010G18KT P6SM SKC FM132300 20014G24KT P6SM SKC FM140300 23010KT P6SM SKC
View NOTAMs / SUP AIP / TFR affecting this airport [VIEW]
Communications frequencies: [VIEW]

Runways:

Airport contact information

Address: Las Vegas United States

Satellite view of 3NV1